sensor_id;sensor_type;location;lat;lon;timestamp;pressure;altitude;pressure_sealevel;temperature;humidity
49779;BME280;36217;60.232;24.776;2023-03-01T00:00:51;101661.89;;;-1.17;100.00
49779;BME280;36217;60.232;24.776;2023-03-01T00:03:19;101665.88;;;-1.12;100.00
49779;BME280;36217;60.232;24.776;2023-03-01T00:05:46;101661.28;;;-1.18;100.00
49779;BME280;36217;60.232;24.776;2023-03-01T00:08:13;101660.11;;;-1.05;100.00
49779;BME280;36217;60.232;24.776;2023-03-01T00:10:40;101655.99;;;-1.23;100.00
49779;BME280;36217;60.232;24.776;2023-03-01T00:13:08;101653.29;;;-1.38;100.00
49779;BME280;36217;60.232;24.776;2023-03-01T00:15:38;101656.31;;;-1.18;100.00
49779;BME280;36217;60.232;24.776;2023-03-01T00:18:10;101659.05;;;-1.48;100.00
49779;BME280;36217;60.232;24.776;2023-03-01T00:20:38;101654.77;;;-1.39;100.00
49779;BME280;36217;60.232;24.776;2023-03-01T00:23:05;101663.36;;;-1.24;100.00
49779;BME280;36217;60.232;24.776;2023-03-01T00:25:32;101664.78;;;-1.23;100.00
49779;BME280;36217;60.232;24.776;2023-03-01T00:28:00;101664.64;;;-1.29;100.00
49779;BME280;36217;60.232;24.776;2023-03-01T00:30:27;101659.75;;;-1.44;100.00
49779;BME280;36217;60.232;24.776;2023-03-01T00:32:54;101655.70;;;-1.27;100.00
49779;BME280;36217;60.232;24.776;2023-03-01T00:35:26;101653.80;;;-1.58;100.00
49779;BME280;36217;60.232;24.776;2023-03-01T00:37:54;101653.13;;;-1.29;100.00
49779;BME280;36217;60.232;24.776;2023-03-01T00:40:21;101649.06;;;-1.20;100.00
49779;BME280;36217;60.232;24.776;2023-03-01T00:42:48;101646.20;;;-1.49;100.00
49779;BME280;36217;60.232;24.776;2023-03-01T00:45:21;101650.20;;;-1.51;100.00
49779;BME280;36217;60.232;24.776;2023-03-01T00:47:49;101648.30;;;-1.34;100.00
49779;BME280;36217;60.232;24.776;2023-03-01T00:50:18;101648.31;;;-1.47;100.00
49779;BME280;36217;60.232;24.776;2023-03-01T00:52:46;101649.41;;;-1.32;100.00
49779;BME280;36217;60.232;24.776;2023-03-01T00:55:13;101652.54;;;-1.44;100.00
49779;BME280;36217;60.232;24.776;2023-03-01T00:57:40;101652.98;;;-1.46;100.00
49779;BME280;36217;60.232;24.776;2023-03-01T01:00:09;101645.75;;;-1.48;100.00
49779;BME280;36217;60.232;24.776;2023-03-01T01:02:36;101647.35;;;-1.22;100.00
49779;BME280;36217;60.232;24.776;2023-03-01T01:05:04;101651.14;;;-1.49;100.00
49779;BME280;36217;60.232;24.776;2023-03-01T01:07:31;101643.54;;;-1.18;100.00
49779;BME280;36217;60.232;24.776;2023-03-01T01:09:58;101646.85;;;-1.56;100.00
49779;BME280;36217;60.232;24.776;2023-03-01T01:12:26;101644.42;;;-1.49;100.00
49779;BME280;36217;60.232;24.776;2023-03-01T01:14:53;101644.96;;;-1.62;100.00
49779;BME280;36217;60.232;24.776;2023-03-01T01:17:20;101644.98;;;-1.56;100.00
49779;BME280;36217;60.232;24.776;2023-03-01T01:19:47;101640.17;;;-1.56;100.00
49779;BME280;36217;60.232;24.776;2023-03-01T01:22:15;101636.25;;;-1.55;100.00
49779;BME280;36217;60.232;24.776;2023-03-01T01:24:42;101641.63;;;-1.50;100.00
49779;BME280;36217;60.232;24.776;2023-03-01T01:27:09;101640.50;;;-1.66;100.00
49779;BME280;36217;60.232;24.776;2023-03-01T01:29:36;101634.75;;;-1.55;100.00
49779;BME280;36217;60.232;24.776;2023-03-01T01:32:04;101635.29;;;-1.66;100.00
49779;BME280;36217;60.232;24.776;2023-03-01T01:34:30;101635.09;;;-1.77;100.00
49779;BME280;36217;60.232;24.776;2023-03-01T01:36:58;101625.85;;;-1.67;100.00
49779;BME280;36217;60.232;24.776;2023-03-01T01:39:25;101632.95;;;-1.72;100.00
49779;BME280;36217;60.232;24.776;2023-03-01T01:41:52;101641.68;;;-1.61;100.00
49779;BME280;36217;60.232;24.776;2023-03-01T01:44:21;101639.46;;;-1.78;100.00
49779;BME280;36217;60.232;24.776;2023-03-01T01:46:51;101641.78;;;-1.49;100.00
49779;BME280;36217;60.232;24.776;2023-03-01T01:49:27;101643.09;;;-1.81;100.00
49779;BME280;36217;60.232;24.776;2023-03-01T01:52:00;101645.64;;;-1.68;100.00
49779;BME280;36217;60.232;24.776;2023-03-01T01:54:34;101643.29;;;-1.70;100.00
49779;BME280;36217;60.232;24.776;2023-03-01T01:57:21;101647.70;;;-1.66;100.00
49779;BME280;36217;60.232;24.776;2023-03-01T01:59:51;101648.57;;;-1.76;100.00
49779;BME280;36217;60.232;24.776;2023-03-01T02:02:19;101656.55;;;-1.73;100.00
49779;BME280;36217;60.232;24.776;2023-03-01T02:04:48;101657.07;;;-1.75;100.00
49779;BME280;36217;60.232;24.776;2023-03-01T02:07:20;101653.91;;;-1.73;100.00
49779;BME280;36217;60.232;24.776;2023-03-01T02:09:50;101648.89;;;-1.84;100.00
49779;BME280;36217;60.232;24.776;2023-03-01T02:12:21;101645.01;;;-1.76;100.00
49779;BME280;36217;60.232;24.776;2023-03-01T02:14:49;101645.00;;;-1.45;100.00
49779;BME280;36217;60.232;24.776;2023-03-01T02:17:17;101648.60;;;-1.77;100.00
49779;BME280;36217;60.232;24.776;2023-03-01T02:19:57;101650.70;;;-1.79;100.00
49779;BME280;36217;60.232;24.776;2023-03-01T02:22:29;101648.99;;;-1.87;100.00
49779;BME280;36217;60.232;24.776;2023-03-01T02:25:07;101648.51;;;-1.79;100.00
49779;BME280;36217;60.232;24.776;2023-03-01T02:27:40;101644.97;;;-1.82;100.00
49779;BME280;36217;60.232;24.776;2023-03-01T02:30:12;101641.77;;;-1.88;100.00
49779;BME280;36217;60.232;24.776;2023-03-01T02:32:40;101645.07;;;-1.93;100.00
49779;BME280;36217;60.232;24.776;2023-03-01T02:35:13;101642.05;;;-1.91;100.00
49779;BME280;36217;60.232;24.776;2023-03-01T02:37:42;101639.53;;;-1.43;100.00
49779;BME280;36217;60.232;24.776;2023-03-01T02:40:13;101638.94;;;-1.93;100.00
49779;BME280;36217;60.232;24.776;2023-03-01T02:42:50;101635.69;;;-1.97;100.00
49779;BME280;36217;60.232;24.776;2023-03-01T02:45:18;101638.65;;;-2.03;100.00
49779;BME280;36217;60.232;24.776;2023-03-01T02:47:45;101635.14;;;-2.00;100.00
49779;BME280;36217;60.232;24.776;2023-03-01T02:50:25;101636.80;;;-2.15;100.00
49779;BME280;36217;60.232;24.776;2023-03-01T02:53:04;101633.44;;;-2.00;100.00
49779;BME280;36217;60.232;24.776;2023-03-01T02:55:35;101638.40;;;-1.95;100.00
49779;BME280;36217;60.232;24.776;2023-03-01T02:58:03;101633.52;;;-2.02;100.00
49779;BME280;36217;60.232;24.776;2023-03-01T03:00:34;101635.55;;;-2.15;100.00
49779;BME280;36217;60.232;24.776;2023-03-01T03:03:03;101634.57;;;-1.82;100.00
49779;BME280;36217;60.232;24.776;2023-03-01T03:05:31;101634.41;;;-1.68;100.00
49779;BME280;36217;60.232;24.776;2023-03-01T03:08:00;101634.25;;;-2.20;100.00
49779;BME280;36217;60.232;24.776;2023-03-01T03:10:29;101638.54;;;-2.08;100.00
49779;BME280;36217;60.232;24.776;2023-03-01T03:12:58;101639.77;;;-2.19;100.00
49779;BME280;36217;60.232;24.776;2023-03-01T03:15:27;101639.85;;;-1.85;100.00
49779;BME280;36217;60.232;24.776;2023-03-01T03:17:55;101639.44;;;-2.11;100.00
49779;BME280;36217;60.232;24.776;2023-03-01T03:20:24;101633.29;;;-1.92;100.00
49779;BME280;36217;60.232;24.776;2023-03-01T03:22:54;101631.14;;;-1.83;100.00
49779;BME280;36217;60.232;24.776;2023-03-01T03:25:22;101633.32;;;-2.14;100.00
49779;BME280;36217;60.232;24.776;2023-03-01T03:27:50;101633.25;;;-2.27;100.00
49779;BME280;36217;60.232;24.776;2023-03-01T03:30:19;101622.98;;;-1.72;100.00
49779;BME280;36217;60.232;24.776;2023-03-01T03:32:47;101616.49;;;-1.72;100.00
49779;BME280;36217;60.232;24.776;2023-03-01T03:35:14;101616.57;;;-2.31;100.00
49779;BME280;36217;60.232;24.776;2023-03-01T03:37:41;101620.43;;;-1.99;100.00
49779;BME280;36217;60.232;24.776;2023-03-01T03:40:10;101627.62;;;-2.18;100.00
49779;BME280;36217;60.232;24.776;2023-03-01T03:42:37;101630.37;;;-1.77;100.00
49779;BME280;36217;60.232;24.776;2023-03-01T03:45:05;101632.04;;;-2.30;100.00
49779;BME280;36217;60.232;24.776;2023-03-01T03:47:32;101635.13;;;-1.70;100.00
49779;BME280;36217;60.232;24.776;2023-03-01T03:49:59;101636.52;;;-2.22;100.00
49779;BME280;36217;60.232;24.776;2023-03-01T03:52:27;101630.04;;;-2.04;100.00
49779;BME280;36217;60.232;24.776;2023-03-01T03:54:54;101633.95;;;-1.94;100.00
49779;BME280;36217;60.232;24.776;2023-03-01T03:57:21;101632.97;;;-1.92;100.00
49779;BME280;36217;60.232;24.776;2023-03-01T03:59:48;101634.32;;;-2.02;100.00
49779;BME280;36217;60.232;24.776;2023-03-01T04:02:16;101636.06;;;-1.74;100.00
49779;BME280;36217;60.232;24.776;2023-03-01T04:04:43;101635.61;;;-2.27;100.00
49779;BME280;36217;60.232;24.776;2023-03-01T04:07:10;101629.10;;;-1.75;100.00
49779;BME280;36217;60.232;24.776;2023-03-01T04:09:37;101631.57;;;-2.13;100.00
49779;BME280;36217;60.232;24.776;2023-03-01T04:12:05;101633.05;;;-1.84;100.00
49779;BME280;36217;60.232;24.776;2023-03-01T04:14:32;101630.82;;;-2.15;100.00
49779;BME280;36217;60.232;24.776;2023-03-01T04:16:59;101629.33;;;-2.31;100.00
49779;BME280;36217;60.232;24.776;2023-03-01T04:19:27;101629.29;;;-2.37;100.00
49779;BME280;36217;60.232;24.776;2023-03-01T04:21:54;101630.81;;;-2.25;100.00
49779;BME280;36217;60.232;24.776;2023-03-01T04:24:21;101636.01;;;-2.26;100.00
49779;BME280;36217;60.232;24.776;2023-03-01T04:26:48;101634.52;;;-2.36;100.00
49779;BME280;36217;60.232;24.776;2023-03-01T04:29:15;101631.06;;;-1.71;100.00
49779;BME280;36217;60.232;24.776;2023-03-01T04:31:43;101629.19;;;-2.07;100.00
49779;BME280;36217;60.232;24.776;2023-03-01T04:34:10;101624.90;;;-2.30;100.00
49779;BME280;36217;60.232;24.776;2023-03-01T04:36:37;101619.20;;;-2.07;100.00
49779;BME280;36217;60.232;24.776;2023-03-01T04:39:05;101624.13;;;-2.34;100.00
49779;BME280;36217;60.232;24.776;2023-03-01T04:41:32;101617.02;;;-2.08;100.00
49779;BME280;36217;60.232;24.776;2023-03-01T04:43:59;101609.48;;;-2.16;100.00
49779;BME280;36217;60.232;24.776;2023-03-01T04:46:26;101608.11;;;-2.18;100.00
49779;BME280;36217;60.232;24.776;2023-03-01T04:48:54;101612.66;;;-2.05;100.00
49779;BME280;36217;60.232;24.776;2023-03-01T04:51:21;101613.31;;;-1.86;100.00
49779;BME280;36217;60.232;24.776;2023-03-01T04:53:48;101610.26;;;-1.88;100.00
49779;BME280;36217;60.232;24.776;2023-03-01T04:56:16;101607.63;;;-2.12;100.00
49779;BME280;36217;60.232;24.776;2023-03-01T04:58:44;101611.98;;;-1.89;100.00
49779;BME280;36217;60.232;24.776;2023-03-01T05:01:13;101611.30;;;-2.51;100.00
49779;BME280;36217;60.232;24.776;2023-03-01T05:03:42;101612.66;;;-1.94;100.00
49779;BME280;36217;60.232;24.776;2023-03-01T05:06:10;101607.94;;;-2.17;100.00
49779;BME280;36217;60.232;24.776;2023-03-01T05:08:38;101603.81;;;-2.06;100.00
49779;BME280;36217;60.232;24.776;2023-03-01T05:11:05;101605.13;;;-2.22;100.00
49779;BME280;36217;60.232;24.776;2023-03-01T05:13:32;101600.56;;;-1.72;100.00
49779;BME280;36217;60.232;24.776;2023-03-01T05:16:01;101594.78;;;-1.93;100.00
49779;BME280;36217;60.232;24.776;2023-03-01T05:18:30;101588.07;;;-1.76;100.00
49779;BME280;36217;60.232;24.776;2023-03-01T05:21:03;101587.00;;;-2.06;100.00
49779;BME280;36217;60.232;24.776;2023-03-01T05:23:30;101584.60;;;-2.22;100.00
49779;BME280;36217;60.232;24.776;2023-03-01T05:25:57;101573.62;;;-1.75;100.00
49779;BME280;36217;60.232;24.776;2023-03-01T05:28:25;101572.85;;;-1.99;100.00
49779;BME280;36217;60.232;24.776;2023-03-01T05:30:53;101562.28;;;-1.95;100.00
49779;BME280;36217;60.232;24.776;2023-03-01T05:33:20;101562.63;;;-1.70;100.00
49779;BME280;36217;60.232;24.776;2023-03-01T05:35:48;101561.01;;;-1.91;100.00
49779;BME280;36217;60.232;24.776;2023-03-01T05:38:16;101555.08;;;-1.91;100.00
49779;BME280;36217;60.232;24.776;2023-03-01T05:40:44;101556.18;;;-1.91;100.00
49779;BME280;36217;60.232;24.776;2023-03-01T05:43:13;101555.61;;;-1.97;100.00
49779;BME280;36217;60.232;24.776;2023-03-01T05:45:41;101547.57;;;-1.61;100.00
49779;BME280;36217;60.232;24.776;2023-03-01T05:48:09;101552.26;;;-1.67;100.00
49779;BME280;36217;60.232;24.776;2023-03-01T05:50:38;101559.26;;;-1.78;100.00
49779;BME280;36217;60.232;24.776;2023-03-01T05:53:07;101565.71;;;-1.70;100.00
49779;BME280;36217;60.232;24.776;2023-03-01T05:55:35;101562.42;;;-1.75;100.00
49779;BME280;36217;60.232;24.776;2023-03-01T05:58:04;101566.11;;;-1.60;100.00
49779;BME280;36217;60.232;24.776;2023-03-01T06:00:32;101565.71;;;-1.57;100.00
49779;BME280;36217;60.232;24.776;2023-03-01T06:03:00;101563.44;;;-1.50;100.00
49779;BME280;36217;60.232;24.776;2023-03-01T06:05:28;101556.36;;;-1.28;100.00
49779;BME280;36217;60.232;24.776;2023-03-01T06:07:58;101550.05;;;-1.21;100.00
49779;BME280;36217;60.232;24.776;2023-03-01T06:10:26;101543.96;;;-1.22;100.00
49779;BME280;36217;60.232;24.776;2023-03-01T06:12:53;101540.59;;;-1.10;100.00
49779;BME280;36217;60.232;24.776;2023-03-01T06:15:21;101531.72;;;-1.20;100.00
49779;BME280;36217;60.232;24.776;2023-03-01T06:17:48;101527.08;;;-1.44;100.00
49779;BME280;36217;60.232;24.776;2023-03-01T06:20:17;101527.78;;;-1.03;100.00
49779;BME280;36217;60.232;24.776;2023-03-01T06:22:44;101530.85;;;-1.10;100.00
49779;BME280;36217;60.232;24.776;2023-03-01T06:25:14;101536.13;;;-1.10;100.00
49779;BME280;36217;60.232;24.776;2023-03-01T06:27:42;101544.46;;;-1.33;100.00
49779;BME280;36217;60.232;24.776;2023-03-01T06:30:11;101547.61;;;-1.29;100.00
49779;BME280;36217;60.232;24.776;2023-03-01T06:32:39;101545.64;;;-1.13;100.00
49779;BME280;36217;60.232;24.776;2023-03-01T06:35:07;101542.94;;;-1.14;100.00
49779;BME280;36217;60.232;24.776;2023-03-01T06:37:34;101540.12;;;-1.03;100.00
49779;BME280;36217;60.232;24.776;2023-03-01T06:40:02;101542.34;;;-1.06;100.00
49779;BME280;36217;60.232;24.776;2023-03-01T06:42:29;101544.55;;;-1.29;100.00
49779;BME280;36217;60.232;24.776;2023-03-01T06:44:56;101541.97;;;-1.04;100.00
49779;BME280;36217;60.232;24.776;2023-03-01T06:47:23;101543.04;;;-1.04;100.00
49779;BME280;36217;60.232;24.776;2023-03-01T06:49:50;101538.55;;;-0.96;100.00
49779;BME280;36217;60.232;24.776;2023-03-01T06:52:18;101537.28;;;-1.19;100.00
49779;BME280;36217;60.232;24.776;2023-03-01T06:54:45;101531.16;;;-0.90;100.00
49779;BME280;36217;60.232;24.776;2023-03-01T06:57:12;101528.52;;;-0.91;100.00
49779;BME280;36217;60.232;24.776;2023-03-01T06:59:39;101523.22;;;-0.49;100.00
49779;BME280;36217;60.232;24.776;2023-03-01T07:02:10;101514.81;;;-0.14;100.00
49779;BME280;36217;60.232;24.776;2023-03-01T07:04:36;101511.36;;;-0.14;100.00
49779;BME280;36217;60.232;24.776;2023-03-01T07:07:04;101512.64;;;0.14;100.00
49779;BME280;36217;60.232;24.776;2023-03-01T07:09:31;101509.73;;;-0.44;100.00
49779;BME280;36217;60.232;24.776;2023-03-01T07:11:58;101502.89;;;-0.26;100.00
49779;BME280;36217;60.232;24.776;2023-03-01T07:14:25;101497.48;;;0.20;100.00
49779;BME280;36217;60.232;24.776;2023-03-01T07:16:53;101494.56;;;-0.13;99.49
49779;BME280;36217;60.232;24.776;2023-03-01T07:19:20;101494.22;;;-0.06;99.75
49779;BME280;36217;60.232;24.776;2023-03-01T07:21:48;101495.88;;;0.29;99.68
49779;BME280;36217;60.232;24.776;2023-03-01T07:24:15;101501.05;;;0.31;99.74
49779;BME280;36217;60.232;24.776;2023-03-01T07:26:42;101492.03;;;0.07;99.76
49779;BME280;36217;60.232;24.776;2023-03-01T07:29:10;101488.13;;;0.17;99.59
49779;BME280;36217;60.232;24.776;2023-03-01T07:31:37;101485.92;;;0.26;99.31
49779;BME280;36217;60.232;24.776;2023-03-01T07:34:04;101482.03;;;0.30;99.78
49779;BME280;36217;60.232;24.776;2023-03-01T07:36:32;101471.90;;;0.44;99.18
49779;BME280;36217;60.232;24.776;2023-03-01T07:38:59;101468.49;;;0.40;99.50
49779;BME280;36217;60.232;24.776;2023-03-01T07:41:26;101460.39;;;0.29;99.33
49779;BME280;36217;60.232;24.776;2023-03-01T07:43:53;101450.31;;;0.47;98.78
49779;BME280;36217;60.232;24.776;2023-03-01T07:46:21;101450.05;;;0.45;98.82
49779;BME280;36217;60.232;24.776;2023-03-01T07:48:48;101439.59;;;0.43;100.00
49779;BME280;36217;60.232;24.776;2023-03-01T07:51:15;101432.98;;;0.80;98.39
49779;BME280;36217;60.232;24.776;2023-03-01T07:53:44;101430.29;;;0.79;98.27
49779;BME280;36217;60.232;24.776;2023-03-01T07:56:13;101429.51;;;1.21;98.06
49779;BME280;36217;60.232;24.776;2023-03-01T07:58:42;101430.27;;;0.89;97.91
49779;BME280;36217;60.232;24.776;2023-03-01T08:01:13;101433.07;;;0.88;98.71
49779;BME280;36217;60.232;24.776;2023-03-01T08:03:40;101425.57;;;0.48;99.73
49779;BME280;36217;60.232;24.776;2023-03-01T08:06:08;101422.93;;;0.61;99.38
49779;BME280;36217;60.232;24.776;2023-03-01T08:08:36;101420.10;;;0.63;99.65
49779;BME280;36217;60.232;24.776;2023-03-01T08:11:06;101413.78;;;0.79;99.73
49779;BME280;36217;60.232;24.776;2023-03-01T08:13:33;101413.76;;;0.64;99.11
49779;BME280;36217;60.232;24.776;2023-03-01T08:16:02;101413.59;;;0.25;100.00
49779;BME280;36217;60.232;24.776;2023-03-01T08:18:29;101406.05;;;0.86;99.49
49779;BME280;36217;60.232;24.776;2023-03-01T08:21:01;101406.09;;;1.37;98.03
49779;BME280;36217;60.232;24.776;2023-03-01T08:23:29;101405.05;;;0.93;98.65
49779;BME280;36217;60.232;24.776;2023-03-01T08:26:03;101401.75;;;0.94;98.79
49779;BME280;36217;60.232;24.776;2023-03-01T08:28:31;101400.83;;;1.52;96.81
49779;BME280;36217;60.232;24.776;2023-03-01T08:31:12;101405.94;;;1.78;95.92
49779;BME280;36217;60.232;24.776;2023-03-01T08:33:39;101406.19;;;2.37;94.88
49779;BME280;36217;60.232;24.776;2023-03-01T08:36:06;101398.12;;;2.05;93.91
49779;BME280;36217;60.232;24.776;2023-03-01T08:38:38;101392.64;;;2.04;94.34
49779;BME280;36217;60.232;24.776;2023-03-01T08:41:06;101400.69;;;2.35;93.49
49779;BME280;36217;60.232;24.776;2023-03-01T08:43:33;101391.54;;;1.95;94.72
49779;BME280;36217;60.232;24.776;2023-03-01T08:46:00;101395.25;;;1.81;95.01
49779;BME280;36217;60.232;24.776;2023-03-01T08:48:28;101399.56;;;2.00;95.40
49779;BME280;36217;60.232;24.776;2023-03-01T08:50:55;101388.64;;;2.37;95.27
49779;BME280;36217;60.232;24.776;2023-03-01T08:53:22;101383.33;;;2.14;96.28
49779;BME280;36217;60.232;24.776;2023-03-01T08:55:49;101390.12;;;2.39;95.22
49779;BME280;36217;60.232;24.776;2023-03-01T08:58:17;101382.47;;;2.69;93.91
49779;BME280;36217;60.232;24.776;2023-03-01T09:00:44;101386.12;;;2.29;96.08
49779;BME280;36217;60.232;24.776;2023-03-01T09:03:11;101379.53;;;2.68;93.61
49779;BME280;36217;60.232;24.776;2023-03-01T09:05:38;101384.15;;;2.78;94.15
49779;BME280;36217;60.232;24.776;2023-03-01T09:08:05;101375.40;;;2.49;94.40
49779;BME280;36217;60.232;24.776;2023-03-01T09:10:32;101372.48;;;2.56;95.21
49779;BME280;36217;60.232;24.776;2023-03-01T09:13:00;101379.31;;;1.99;96.45
49779;BME280;36217;60.232;24.776;2023-03-01T09:15:27;101372.43;;;2.56;95.27
49779;BME280;36217;60.232;24.776;2023-03-01T09:17:54;101371.47;;;2.20;96.14
49779;BME280;36217;60.232;24.776;2023-03-01T09:20:21;101365.20;;;2.35;95.78
49779;BME280;36217;60.232;24.776;2023-03-01T09:22:48;101358.94;;;2.97;94.06
49779;BME280;36217;60.232;24.776;2023-03-01T09:25:16;101360.57;;;2.44;96.34
49779;BME280;36217;60.232;24.776;2023-03-01T09:27:43;101350.25;;;2.63;94.68
49779;BME280;36217;60.232;24.776;2023-03-01T09:30:11;101355.57;;;2.80;93.57
49779;BME280;36217;60.232;24.776;2023-03-01T09:32:38;101349.88;;;2.69;95.44
49779;BME280;36217;60.232;24.776;2023-03-01T09:35:10;101348.97;;;2.91;95.10
49779;BME280;36217;60.232;24.776;2023-03-01T09:37:37;101346.15;;;2.97;94.74
49779;BME280;36217;60.232;24.776;2023-03-01T09:40:09;101341.09;;;2.91;94.93
49779;BME280;36217;60.232;24.776;2023-03-01T09:42:46;101338.90;;;2.65;95.70
49779;BME280;36217;60.232;24.776;2023-03-01T09:45:25;101333.47;;;2.41;96.66
49779;BME280;36217;60.232;24.776;2023-03-01T09:47:52;101335.26;;;2.74;95.94
49779;BME280;36217;60.232;24.776;2023-03-01T09:50:21;101334.27;;;2.53;96.67
49779;BME280;36217;60.232;24.776;2023-03-01T09:52:53;101328.60;;;2.56;97.35
49779;BME280;36217;60.232;24.776;2023-03-01T09:55:26;101323.31;;;2.82;95.56
49779;BME280;36217;60.232;24.776;2023-03-01T09:57:59;101317.78;;;2.79;95.68
49779;BME280;36217;60.232;24.776;2023-03-01T10:00:36;101318.94;;;2.50;97.23
49779;BME280;36217;60.232;24.776;2023-03-01T10:03:12;101325.76;;;2.99;96.26
49779;BME280;36217;60.232;24.776;2023-03-01T10:05:47;101325.37;;;2.94;96.18
49779;BME280;36217;60.232;24.776;2023-03-01T10:08:37;101320.95;;;2.76;96.72
49779;BME280;36217;60.232;24.776;2023-03-01T10:11:18;101322.80;;;2.84;95.77
49779;BME280;36217;60.232;24.776;2023-03-01T10:13:49;101320.90;;;2.57;97.42
49779;BME280;36217;60.232;24.776;2023-03-01T10:16:22;101314.01;;;3.16;95.66
49779;BME280;36217;60.232;24.776;2023-03-01T10:18:55;101314.60;;;3.18;95.94
49779;BME280;36217;60.232;24.776;2023-03-01T10:21:25;101309.91;;;2.82;97.55
49779;BME280;36217;60.232;24.776;2023-03-01T10:23:53;101312.54;;;3.00;96.95
49779;BME280;36217;60.232;24.776;2023-03-01T10:26:31;101312.10;;;2.90;96.92
49779;BME280;36217;60.232;24.776;2023-03-01T10:29:05;101313.71;;;3.14;96.10
49779;BME280;36217;60.232;24.776;2023-03-01T10:31:38;101308.86;;;2.97;96.96
49779;BME280;36217;60.232;24.776;2023-03-01T10:34:10;101310.09;;;2.63;97.94
49779;BME280;36217;60.232;24.776;2023-03-01T10:36:39;101310.84;;;2.86;97.52
49779;BME280;36217;60.232;24.776;2023-03-01T10:39:13;101306.24;;;2.89;96.52
49779;BME280;36217;60.232;24.776;2023-03-01T10:41:54;101305.85;;;3.36;95.88
49779;BME280;36217;60.232;24.776;2023-03-01T10:44:54;101304.03;;;3.42;96.61
49779;BME280;36217;60.232;24.776;2023-03-01T10:47:23;101294.46;;;3.01;97.09
49779;BME280;36217;60.232;24.776;2023-03-01T10:49:54;101299.45;;;3.05;96.72
49779;BME280;36217;60.232;24.776;2023-03-01T10:52:24;101296.31;;;3.33;95.64
49779;BME280;36217;60.232;24.776;2023-03-01T10:54:54;101295.43;;;3.37;95.90
49779;BME280;36217;60.232;24.776;2023-03-01T10:57:31;101293.40;;;3.68;93.83
49779;BME280;36217;60.232;24.776;2023-03-01T11:01:06;101289.54;;;3.26;95.24
49779;BME280;36217;60.232;24.776;2023-03-01T11:04:10;101275.68;;;3.64;95.30
49779;BME280;36217;60.232;24.776;2023-03-01T11:06:39;101274.54;;;3.79;94.25
49779;BME280;36217;60.232;24.776;2023-03-01T11:09:15;101273.65;;;3.76;93.35
49779;BME280;36217;60.232;24.776;2023-03-01T11:11:42;101268.08;;;3.51;95.01
49779;BME280;36217;60.232;24.776;2023-03-01T11:14:15;101265.46;;;3.20;95.95
49779;BME280;36217;60.232;24.776;2023-03-01T11:16:44;101268.60;;;3.38;95.20
49779;BME280;36217;60.232;24.776;2023-03-01T11:19:21;101270.34;;;3.58;94.99
49779;BME280;36217;60.232;24.776;2023-03-01T11:21:58;101277.90;;;3.77;94.06
49779;BME280;36217;60.232;24.776;2023-03-01T11:24:31;101272.91;;;3.49;94.33
49779;BME280;36217;60.232;24.776;2023-03-01T11:27:04;101274.71;;;3.90;94.07
49779;BME280;36217;60.232;24.776;2023-03-01T11:29:37;101270.21;;;3.58;94.16
49779;BME280;36217;60.232;24.776;2023-03-01T11:32:08;101261.48;;;3.62;94.58
49779;BME280;36217;60.232;24.776;2023-03-01T11:34:42;101257.06;;;4.47;92.69
49779;BME280;36217;60.232;24.776;2023-03-01T11:37:20;101257.93;;;4.41;91.78
49779;BME280;36217;60.232;24.776;2023-03-01T11:39:55;101252.54;;;4.48;91.54
49779;BME280;36217;60.232;24.776;2023-03-01T11:42:30;101253.55;;;5.11;89.45
49779;BME280;36217;60.232;24.776;2023-03-01T11:45:09;101254.37;;;5.00;89.10
49779;BME280;36217;60.232;24.776;2023-03-01T11:47:58;101254.45;;;4.16;91.50
49779;BME280;36217;60.232;24.776;2023-03-01T11:50:32;101249.40;;;4.71;89.71
49779;BME280;36217;60.232;24.776;2023-03-01T11:53:15;101243.10;;;4.80;90.80
49779;BME280;36217;60.232;24.776;2023-03-01T11:55:54;101248.69;;;4.44;90.59
49779;BME280;36217;60.232;24.776;2023-03-01T11:58:40;101244.41;;;4.82;91.09
49779;BME280;36217;60.232;24.776;2023-03-01T12:01:21;101244.12;;;5.00;89.46
49779;BME280;36217;60.232;24.776;2023-03-01T12:04:24;101246.56;;;4.98;89.80
49779;BME280;36217;60.232;24.776;2023-03-01T12:06:59;101248.04;;;4.43;90.23
49779;BME280;36217;60.232;24.776;2023-03-01T12:09:38;101244.69;;;4.79;90.49
49779;BME280;36217;60.232;24.776;2023-03-01T12:12:24;101243.39;;;4.54;92.09
49779;BME280;36217;60.232;24.776;2023-03-01T12:14:59;101242.63;;;4.81;90.84
49779;BME280;36217;60.232;24.776;2023-03-01T12:17:41;101242.86;;;4.50;92.03
49779;BME280;36217;60.232;24.776;2023-03-01T12:20:23;101242.57;;;4.45;92.89
49779;BME280;36217;60.232;24.776;2023-03-01T12:23:02;101241.97;;;4.14;93.93
49779;BME280;36217;60.232;24.776;2023-03-01T12:25:45;101242.25;;;4.18;93.51
49779;BME280;36217;60.232;24.776;2023-03-01T12:28:23;101250.44;;;4.64;91.59
49779;BME280;36217;60.232;24.776;2023-03-01T12:31:04;101245.63;;;4.57;92.90
49779;BME280;36217;60.232;24.776;2023-03-01T12:33:42;101242.73;;;4.06;94.10
49779;BME280;36217;60.232;24.776;2023-03-01T12:36:26;101244.45;;;4.53;93.00
49779;BME280;36217;60.232;24.776;2023-03-01T12:39:06;101242.00;;;4.28;92.78
49779;BME280;36217;60.232;24.776;2023-03-01T12:41:46;101235.81;;;3.74;96.74
49779;BME280;36217;60.232;24.776;2023-03-01T12:44:26;101233.85;;;4.05;95.21
49779;BME280;36217;60.232;24.776;2023-03-01T12:47:07;101233.15;;;4.05;95.89
49779;BME280;36217;60.232;24.776;2023-03-01T12:49:40;101235.22;;;4.19;94.72
49779;BME280;36217;60.232;24.776;2023-03-01T12:52:14;101235.28;;;3.92;95.14
49779;BME280;36217;60.232;24.776;2023-03-01T12:54:45;101236.37;;;3.93;95.89